sensor_id;sensor_type;location;lat;lon;timestamp;pressure;altitude;pressure_sealevel;temperature;humidity
3598;BME280;1813;52.016;8.714;2022-12-18T00:00:45;-16261.94;;;-139.71;63.50
3598;BME280;1813;52.016;8.714;2022-12-18T00:03:20;-16261.94;;;-139.71;63.15
3598;BME280;1813;52.016;8.714;2022-12-18T00:05:56;-16261.94;;;-139.71;62.66
3598;BME280;1813;52.016;8.714;2022-12-18T00:08:30;-16261.94;;;-139.71;62.65
3598;BME280;1813;52.016;8.714;2022-12-18T00:11:05;-16261.94;;;-139.71;62.93
3598;BME280;1813;52.016;8.714;2022-12-18T00:13:39;-16261.94;;;-139.71;62.93
3598;BME280;1813;52.016;8.714;2022-12-18T00:16:15;-16261.94;;;-139.71;63.03
3598;BME280;1813;52.016;8.714;2022-12-18T00:18:51;-16261.94;;;-139.71;63.08
3598;BME280;1813;52.016;8.714;2022-12-18T00:21:29;-16261.94;;;-139.71;63.03
3598;BME280;1813;52.016;8.714;2022-12-18T00:24:03;-16261.94;;;-139.71;63.05
3598;BME280;1813;52.016;8.714;2022-12-18T00:26:38;-16261.94;;;-139.71;63.05
3598;BME280;1813;52.016;8.714;2022-12-18T00:29:13;-16261.94;;;-139.71;63.25
3598;BME280;1813;52.016;8.714;2022-12-18T00:31:47;-16261.94;;;-139.71;63.57
3598;BME280;1813;52.016;8.714;2022-12-18T00:34:21;-16261.94;;;-139.71;64.00
3598;BME280;1813;52.016;8.714;2022-12-18T00:36:59;-16261.94;;;-139.71;64.37
3598;BME280;1813;52.016;8.714;2022-12-18T00:39:33;-16261.94;;;-139.71;64.69
3598;BME280;1813;52.016;8.714;2022-12-18T00:42:10;-16261.94;;;-139.71;64.86
3598;BME280;1813;52.016;8.714;2022-12-18T00:44:56;-16261.94;;;-139.71;64.79
3598;BME280;1813;52.016;8.714;2022-12-18T00:47:30;-16261.94;;;-139.71;64.84
3598;BME280;1813;52.016;8.714;2022-12-18T00:50:04;-16261.94;;;-139.71;64.96
3598;BME280;1813;52.016;8.714;2022-12-18T00:52:41;-16261.94;;;-139.71;64.86
3598;BME280;1813;52.016;8.714;2022-12-18T00:55:16;-16261.94;;;-139.71;65.03
3598;BME280;1813;52.016;8.714;2022-12-18T00:57:51;-16261.94;;;-139.71;65.14
3598;BME280;1813;52.016;8.714;2022-12-18T01:00:25;-16261.94;;;-139.71;65.10
3598;BME280;1813;52.016;8.714;2022-12-18T01:02:59;-16261.94;;;-139.71;64.98
3598;BME280;1813;52.016;8.714;2022-12-18T01:05:33;-16261.94;;;-139.71;65.13
3598;BME280;1813;52.016;8.714;2022-12-18T01:08:09;-16261.94;;;-139.71;65.18
3598;BME280;1813;52.016;8.714;2022-12-18T01:10:43;-16261.94;;;-139.71;65.16
3598;BME280;1813;52.016;8.714;2022-12-18T01:13:17;-16261.94;;;-139.71;65.09
3598;BME280;1813;52.016;8.714;2022-12-18T01:15:54;-16261.94;;;-139.71;65.11
3598;BME280;1813;52.016;8.714;2022-12-18T01:18:28;-16261.94;;;-139.71;65.01
3598;BME280;1813;52.016;8.714;2022-12-18T01:21:06;-16261.94;;;-139.71;64.85
3598;BME280;1813;52.016;8.714;2022-12-18T01:23:44;-16261.94;;;-139.71;64.73
3598;BME280;1813;52.016;8.714;2022-12-18T01:26:18;-16261.94;;;-139.71;64.52
3598;BME280;1813;52.016;8.714;2022-12-18T01:28:54;-16261.94;;;-139.71;64.16
3598;BME280;1813;52.016;8.714;2022-12-18T01:31:29;-16261.94;;;-139.71;64.05
3598;BME280;1813;52.016;8.714;2022-12-18T01:34:06;-16261.94;;;-139.71;64.15
3598;BME280;1813;52.016;8.714;2022-12-18T01:36:40;-16261.94;;;-139.71;64.02
3598;BME280;1813;52.016;8.714;2022-12-18T01:39:17;-16261.94;;;-139.71;63.84
3598;BME280;1813;52.016;8.714;2022-12-18T01:41:52;-16261.94;;;-139.71;63.67
3598;BME280;1813;52.016;8.714;2022-12-18T01:45:00;-16261.94;;;-139.71;63.72
3598;BME280;1813;52.016;8.714;2022-12-18T01:47:37;-16261.94;;;-139.71;63.61
3598;BME280;1813;52.016;8.714;2022-12-18T01:50:14;-16261.94;;;-139.71;63.55
3598;BME280;1813;52.016;8.714;2022-12-18T01:52:51;-16261.94;;;-139.71;63.48
3598;BME280;1813;52.016;8.714;2022-12-18T01:55:32;-16261.94;;;-139.71;63.42
3598;BME280;1813;52.016;8.714;2022-12-18T01:58:09;-16261.94;;;-139.71;63.52
3598;BME280;1813;52.016;8.714;2022-12-18T02:00:42;-16261.94;;;-139.71;63.78
3598;BME280;1813;52.016;8.714;2022-12-18T02:03:16;-16261.94;;;-139.71;64.19
3598;BME280;1813;52.016;8.714;2022-12-18T02:05:57;-16261.94;;;-139.71;64.52
3598;BME280;1813;52.016;8.714;2022-12-18T02:08:39;-16261.94;;;-139.71;64.71
3598;BME280;1813;52.016;8.714;2022-12-18T02:11:21;-16261.94;;;-139.71;64.86
3598;BME280;1813;52.016;8.714;2022-12-18T02:14:05;-16261.94;;;-139.71;65.08
3598;BME280;1813;52.016;8.714;2022-12-18T02:16:45;-16261.94;;;-139.71;65.25
3598;BME280;1813;52.016;8.714;2022-12-18T02:22:29;-16261.94;;;-139.71;65.42
3598;BME280;1813;52.016;8.714;2022-12-18T02:25:21;-16261.94;;;-139.71;65.42
3598;BME280;1813;52.016;8.714;2022-12-18T02:28:06;-16261.94;;;-139.71;65.30
3598;BME280;1813;52.016;8.714;2022-12-18T02:30:43;-16261.94;;;-139.71;65.00
3598;BME280;1813;52.016;8.714;2022-12-18T02:33:19;-16261.94;;;-139.71;64.67
3598;BME280;1813;52.016;8.714;2022-12-18T02:35:56;-16261.94;;;-139.71;64.34
3598;BME280;1813;52.016;8.714;2022-12-18T02:38:33;-16261.94;;;-139.71;64.05
3598;BME280;1813;52.016;8.714;2022-12-18T02:41:16;-16261.94;;;-139.71;63.62
3598;BME280;1813;52.016;8.714;2022-12-18T02:43:57;-16261.94;;;-139.71;63.10
3598;BME280;1813;52.016;8.714;2022-12-18T02:46:36;-16261.94;;;-139.71;62.53
3598;BME280;1813;52.016;8.714;2022-12-18T02:49:24;-16261.94;;;-139.71;62.04
3598;BME280;1813;52.016;8.714;2022-12-18T02:52:11;-16261.94;;;-139.71;61.86
3598;BME280;1813;52.016;8.714;2022-12-18T02:54:57;-16261.94;;;-139.71;61.51
3598;BME280;1813;52.016;8.714;2022-12-18T02:57:41;-16261.94;;;-139.71;61.15
3598;BME280;1813;52.016;8.714;2022-12-18T03:00:22;-16261.94;;;-139.71;60.93
3598;BME280;1813;52.016;8.714;2022-12-18T03:03:01;-16261.94;;;-139.71;60.92
3598;BME280;1813;52.016;8.714;2022-12-18T03:05:39;-16261.94;;;-139.71;60.69
3598;BME280;1813;52.016;8.714;2022-12-18T03:08:17;-16261.94;;;-139.71;60.26
3598;BME280;1813;52.016;8.714;2022-12-18T03:10:57;-16261.94;;;-139.71;59.72
3598;BME280;1813;52.016;8.714;2022-12-18T03:13:35;-16261.94;;;-139.71;59.69
3598;BME280;1813;52.016;8.714;2022-12-18T03:16:25;-16261.94;;;-139.71;59.43
3598;BME280;1813;52.016;8.714;2022-12-18T03:19:02;-16261.94;;;-139.71;59.29
3598;BME280;1813;52.016;8.714;2022-12-18T03:21:42;-16261.94;;;-139.71;59.16
3598;BME280;1813;52.016;8.714;2022-12-18T03:24:19;-16261.94;;;-139.71;59.23
3598;BME280;1813;52.016;8.714;2022-12-18T03:27:00;-16261.94;;;-139.71;59.31
3598;BME280;1813;52.016;8.714;2022-12-18T03:29:38;-16261.94;;;-139.71;59.66
3598;BME280;1813;52.016;8.714;2022-12-18T03:32:23;-16261.94;;;-139.71;60.28
3598;BME280;1813;52.016;8.714;2022-12-18T03:35:03;-16261.94;;;-139.71;60.64
3598;BME280;1813;52.016;8.714;2022-12-18T03:37:40;-16261.94;;;-139.71;61.15
3598;BME280;1813;52.016;8.714;2022-12-18T03:40:15;-16261.94;;;-139.71;61.67
3598;BME280;1813;52.016;8.714;2022-12-18T03:42:51;-16261.94;;;-139.71;61.79
3598;BME280;1813;52.016;8.714;2022-12-18T03:45:34;-16261.94;;;-139.71;61.53
3598;BME280;1813;52.016;8.714;2022-12-18T03:48:18;-16261.94;;;-139.71;61.42
3598;BME280;1813;52.016;8.714;2022-12-18T03:50:56;-16261.94;;;-139.71;61.72
3598;BME280;1813;52.016;8.714;2022-12-18T03:53:36;-16261.94;;;-139.71;61.91
3598;BME280;1813;52.016;8.714;2022-12-18T03:56:13;-16261.94;;;-139.71;61.74
3598;BME280;1813;52.016;8.714;2022-12-18T03:58:50;-16261.94;;;-139.71;61.58
3598;BME280;1813;52.016;8.714;2022-12-18T04:01:32;-16261.94;;;-139.71;61.61
3598;BME280;1813;52.016;8.714;2022-12-18T04:04:10;-16261.94;;;-139.71;61.44
3598;BME280;1813;52.016;8.714;2022-12-18T04:06:47;-16261.94;;;-139.71;61.42
3598;BME280;1813;52.016;8.714;2022-12-18T04:09:23;-16261.94;;;-139.71;61.36
3598;BME280;1813;52.016;8.714;2022-12-18T04:11:57;-16261.94;;;-139.71;61.16
3598;BME280;1813;52.016;8.714;2022-12-18T04:14:31;-16261.94;;;-139.71;61.18
3598;BME280;1813;52.016;8.714;2022-12-18T04:17:08;-16261.94;;;-139.71;61.03
3598;BME280;1813;52.016;8.714;2022-12-18T04:19:44;-16261.94;;;-139.71;60.77
3598;BME280;1813;52.016;8.714;2022-12-18T04:22:18;-16261.94;;;-139.71;60.18
3598;BME280;1813;52.016;8.714;2022-12-18T04:24:57;-16261.94;;;-139.71;59.57
3598;BME280;1813;52.016;8.714;2022-12-18T04:27:39;-16261.94;;;-139.71;59.42
3598;BME280;1813;52.016;8.714;2022-12-18T04:30:13;-16261.94;;;-139.71;59.23
3598;BME280;1813;52.016;8.714;2022-12-18T04:32:47;-16261.94;;;-139.71;59.00
3598;BME280;1813;52.016;8.714;2022-12-18T04:35:23;-16261.94;;;-139.71;58.62
3598;BME280;1813;52.016;8.714;2022-12-18T04:37:57;-16261.94;;;-139.71;58.44
3598;BME280;1813;52.016;8.714;2022-12-18T04:40:31;-16261.94;;;-139.71;58.59
3598;BME280;1813;52.016;8.714;2022-12-18T04:43:07;-16261.94;;;-139.71;58.65
3598;BME280;1813;52.016;8.714;2022-12-18T04:45:41;-16261.94;;;-139.71;58.72
3598;BME280;1813;52.016;8.714;2022-12-18T04:48:14;-16261.94;;;-139.71;58.56
3598;BME280;1813;52.016;8.714;2022-12-18T04:50:51;-16261.94;;;-139.71;58.56
3598;BME280;1813;52.016;8.714;2022-12-18T04:53:25;-16261.94;;;-139.71;58.94
3598;BME280;1813;52.016;8.714;2022-12-18T04:56:04;-16261.94;;;-139.71;59.11
3598;BME280;1813;52.016;8.714;2022-12-18T04:58:39;-16261.94;;;-139.71;59.31
3598;BME280;1813;52.016;8.714;2022-12-18T05:01:15;-16261.94;;;-139.71;59.52
3598;BME280;1813;52.016;8.714;2022-12-18T05:03:50;-16261.94;;;-139.71;59.63
3598;BME280;1813;52.016;8.714;2022-12-18T05:06:27;-16261.94;;;-139.71;59.65
3598;BME280;1813;52.016;8.714;2022-12-18T05:09:00;-16261.94;;;-139.71;59.71
3598;BME280;1813;52.016;8.714;2022-12-18T05:11:34;-16261.94;;;-139.71;59.87
3598;BME280;1813;52.016;8.714;2022-12-18T05:14:08;-16261.94;;;-139.71;60.04
3598;BME280;1813;52.016;8.714;2022-12-18T05:16:42;-16261.94;;;-139.71;60.09
3598;BME280;1813;52.016;8.714;2022-12-18T05:19:15;-16261.94;;;-139.71;60.30
3598;BME280;1813;52.016;8.714;2022-12-18T05:21:52;-16261.94;;;-139.71;60.76
3598;BME280;1813;52.016;8.714;2022-12-18T05:24:26;-16261.94;;;-139.71;61.42
3598;BME280;1813;52.016;8.714;2022-12-18T05:26:59;-16261.94;;;-139.71;61.80
3598;BME280;1813;52.016;8.714;2022-12-18T05:29:33;-16261.94;;;-139.71;62.03
3598;BME280;1813;52.016;8.714;2022-12-18T05:32:07;-16261.94;;;-139.71;62.37
3598;BME280;1813;52.016;8.714;2022-12-18T05:34:41;-16261.94;;;-139.71;62.71
3598;BME280;1813;52.016;8.714;2022-12-18T05:37:17;-16261.94;;;-139.71;63.11
3598;BME280;1813;52.016;8.714;2022-12-18T05:39:51;-16261.94;;;-139.71;63.50
3598;BME280;1813;52.016;8.714;2022-12-18T05:42:25;-16261.94;;;-139.71;63.85
3598;BME280;1813;52.016;8.714;2022-12-18T05:44:59;-16261.94;;;-139.71;64.21
3598;BME280;1813;52.016;8.714;2022-12-18T05:47:32;-16261.94;;;-139.71;64.40
3598;BME280;1813;52.016;8.714;2022-12-18T05:50:07;-16261.94;;;-139.71;64.61
3598;BME280;1813;52.016;8.714;2022-12-18T05:52:44;-16261.94;;;-139.71;64.74
3598;BME280;1813;52.016;8.714;2022-12-18T05:55:17;-16261.94;;;-139.71;64.90
3598;BME280;1813;52.016;8.714;2022-12-18T05:57:51;-16261.94;;;-139.71;65.00
3598;BME280;1813;52.016;8.714;2022-12-18T06:00:25;-16261.94;;;-139.71;65.08
3598;BME280;1813;52.016;8.714;2022-12-18T06:02:59;-16261.94;;;-139.71;64.81
3598;BME280;1813;52.016;8.714;2022-12-18T06:05:35;-16261.94;;;-139.71;64.27
3598;BME280;1813;52.016;8.714;2022-12-18T06:08:12;-16261.94;;;-139.71;64.00
3598;BME280;1813;52.016;8.714;2022-12-18T06:10:50;-16261.94;;;-139.71;63.91
3598;BME280;1813;52.016;8.714;2022-12-18T06:13:25;-16261.94;;;-139.71;63.79
3598;BME280;1813;52.016;8.714;2022-12-18T06:16:01;-16261.94;;;-139.71;63.74
3598;BME280;1813;52.016;8.714;2022-12-18T06:18:35;-16261.94;;;-139.71;63.85
3598;BME280;1813;52.016;8.714;2022-12-18T06:21:09;-16261.94;;;-139.71;63.96
3598;BME280;1813;52.016;8.714;2022-12-18T06:23:45;-16261.94;;;-139.71;64.20
3598;BME280;1813;52.016;8.714;2022-12-18T06:26:19;-16261.94;;;-139.71;64.51
3598;BME280;1813;52.016;8.714;2022-12-18T06:28:53;-16261.94;;;-139.71;64.85
3598;BME280;1813;52.016;8.714;2022-12-18T06:31:27;-16261.94;;;-139.71;65.08
3598;BME280;1813;52.016;8.714;2022-12-18T06:34:02;-16261.94;;;-139.71;65.20
3598;BME280;1813;52.016;8.714;2022-12-18T06:36:36;-16261.94;;;-139.71;65.38
3598;BME280;1813;52.016;8.714;2022-12-18T06:39:12;-16261.94;;;-139.71;65.35
3598;BME280;1813;52.016;8.714;2022-12-18T06:41:46;-16261.94;;;-139.71;65.39
3598;BME280;1813;52.016;8.714;2022-12-18T06:44:20;-16261.94;;;-139.71;65.34
3598;BME280;1813;52.016;8.714;2022-12-18T06:46:54;-16261.94;;;-139.71;65.43
3598;BME280;1813;52.016;8.714;2022-12-18T06:49:27;-16261.94;;;-139.71;65.75
3598;BME280;1813;52.016;8.714;2022-12-18T06:52:01;-16261.94;;;-139.71;65.88
3598;BME280;1813;52.016;8.714;2022-12-18T06:54:38;-16261.94;;;-139.71;65.99
3598;BME280;1813;52.016;8.714;2022-12-18T06:57:11;-16261.94;;;-139.71;66.08
3598;BME280;1813;52.016;8.714;2022-12-18T06:59:45;-16261.94;;;-139.71;66.28
3598;BME280;1813;52.016;8.714;2022-12-18T07:02:19;-16261.94;;;-139.71;66.37
3598;BME280;1813;52.016;8.714;2022-12-18T07:04:53;-16261.94;;;-139.71;66.42
3598;BME280;1813;52.016;8.714;2022-12-18T07:07:26;-16261.94;;;-139.71;66.69
3598;BME280;1813;52.016;8.714;2022-12-18T07:10:04;-16261.94;;;-139.71;66.76
3598;BME280;1813;52.016;8.714;2022-12-18T07:12:37;-16261.94;;;-139.71;66.99
3598;BME280;1813;52.016;8.714;2022-12-18T07:15:11;-16261.94;;;-139.71;67.24
3598;BME280;1813;52.016;8.714;2022-12-18T07:17:45;-16261.94;;;-139.71;67.28
3598;BME280;1813;52.016;8.714;2022-12-18T07:20:19;-16261.94;;;-139.71;67.17
3598;BME280;1813;52.016;8.714;2022-12-18T07:22:53;-16261.94;;;-139.71;67.24
3598;BME280;1813;52.016;8.714;2022-12-18T07:25:29;-16261.94;;;-139.71;67.31
3598;BME280;1813;52.016;8.714;2022-12-18T07:28:03;-16261.94;;;-139.71;67.37
3598;BME280;1813;52.016;8.714;2022-12-18T07:30:37;-16261.94;;;-139.71;67.29
3598;BME280;1813;52.016;8.714;2022-12-18T07:33:11;-16261.94;;;-139.71;67.41
3598;BME280;1813;52.016;8.714;2022-12-18T07:35:45;-16261.94;;;-139.71;67.27
3598;BME280;1813;52.016;8.714;2022-12-18T07:38:19;-16261.94;;;-139.71;67.15
3598;BME280;1813;52.016;8.714;2022-12-18T07:41:00;-16261.94;;;-139.71;66.96
3598;BME280;1813;52.016;8.714;2022-12-18T07:43:34;-16261.94;;;-139.71;67.11
3598;BME280;1813;52.016;8.714;2022-12-18T07:46:09;-16261.94;;;-139.71;67.04
3598;BME280;1813;52.016;8.714;2022-12-18T07:48:44;-16261.94;;;-139.71;66.87
3598;BME280;1813;52.016;8.714;2022-12-18T07:51:18;-16261.94;;;-139.71;66.79
3598;BME280;1813;52.016;8.714;2022-12-18T07:53:52;-16261.94;;;-139.71;66.89
3598;BME280;1813;52.016;8.714;2022-12-18T07:56:28;-16261.94;;;-139.71;66.84
3598;BME280;1813;52.016;8.714;2022-12-18T07:59:02;-16261.94;;;-139.71;66.79
3598;BME280;1813;52.016;8.714;2022-12-18T08:01:36;-16261.94;;;-139.71;66.57
3598;BME280;1813;52.016;8.714;2022-12-18T08:04:10;-16261.94;;;-139.71;66.81
3598;BME280;1813;52.016;8.714;2022-12-18T08:06:44;-16261.94;;;-139.71;67.21
3598;BME280;1813;52.016;8.714;2022-12-18T08:09:18;-16261.94;;;-139.71;67.58
3598;BME280;1813;52.016;8.714;2022-12-18T08:11:54;-16261.94;;;-139.71;67.68
3598;BME280;1813;52.016;8.714;2022-12-18T08:14:28;-16261.94;;;-139.71;67.76
3598;BME280;1813;52.016;8.714;2022-12-18T08:17:01;-16261.94;;;-139.71;67.71
3598;BME280;1813;52.016;8.714;2022-12-18T08:19:35;-16261.94;;;-139.71;67.85
3598;BME280;1813;52.016;8.714;2022-12-18T08:22:09;-16261.94;;;-139.71;68.02
3598;BME280;1813;52.016;8.714;2022-12-18T08:24:43;-16261.94;;;-139.71;68.26
3598;BME280;1813;52.016;8.714;2022-12-18T08:27:19;-16261.94;;;-139.71;68.39
3598;BME280;1813;52.016;8.714;2022-12-18T08:29:53;-16261.94;;;-139.71;68.49
3598;BME280;1813;52.016;8.714;2022-12-18T08:32:27;-16261.94;;;-139.71;68.54
3598;BME280;1813;52.016;8.714;2022-12-18T08:35:01;-16261.94;;;-139.71;68.61
3598;BME280;1813;52.016;8.714;2022-12-18T08:37:35;-16261.94;;;-139.71;68.75
3598;BME280;1813;52.016;8.714;2022-12-18T08:40:10;-16261.94;;;-139.71;68.79
3598;BME280;1813;52.016;8.714;2022-12-18T08:42:47;-16261.94;;;-139.71;68.85
3598;BME280;1813;52.016;8.714;2022-12-18T08:45:33;-16261.94;;;-139.71;69.01
3598;BME280;1813;52.016;8.714;2022-12-18T08:48:07;-16261.94;;;-139.71;69.24
3598;BME280;1813;52.016;8.714;2022-12-18T08:50:41;-16261.94;;;-139.71;69.38
3598;BME280;1813;52.016;8.714;2022-12-18T08:53:15;-16261.94;;;-139.71;69.59
3598;BME280;1813;52.016;8.714;2022-12-18T08:55:48;-16261.94;;;-139.71;69.79
3598;BME280;1813;52.016;8.714;2022-12-18T08:58:25;-16261.94;;;-139.71;70.01
3598;BME280;1813;52.016;8.714;2022-12-18T09:01:00;-16261.94;;;-139.71;70.15
3598;BME280;1813;52.016;8.714;2022-12-18T09:03:34;-16261.94;;;-139.71;70.55
3598;BME280;1813;52.016;8.714;2022-12-18T09:06:08;-16261.94;;;-139.71;70.86
3598;BME280;1813;52.016;8.714;2022-12-18T09:08:42;-16261.94;;;-139.71;71.26
3598;BME280;1813;52.016;8.714;2022-12-18T09:11:20;-16261.94;;;-139.71;71.31
3598;BME280;1813;52.016;8.714;2022-12-18T09:13:57;-16261.94;;;-139.71;71.19
3598;BME280;1813;52.016;8.714;2022-12-18T09:16:32;-16261.94;;;-139.71;70.77
3598;BME280;1813;52.016;8.714;2022-12-18T09:19:06;-16261.94;;;-139.71;70.33
3598;BME280;1813;52.016;8.714;2022-12-18T09:21:40;-16261.94;;;-139.71;69.97
3598;BME280;1813;52.016;8.714;2022-12-18T09:24:15;-16261.94;;;-139.71;69.79
3598;BME280;1813;52.016;8.714;2022-12-18T09:26:52;-16261.94;;;-139.71;69.72
3598;BME280;1813;52.016;8.714;2022-12-18T09:29:29;-16261.94;;;-139.71;69.49
3598;BME280;1813;52.016;8.714;2022-12-18T09:32:04;-16261.94;;;-139.71;69.15
3598;BME280;1813;52.016;8.714;2022-12-18T09:34:37;-16261.94;;;-139.71;69.02
3598;BME280;1813;52.016;8.714;2022-12-18T09:37:11;-16261.94;;;-139.71;68.76
3598;BME280;1813;52.016;8.714;2022-12-18T09:39:45;-16261.94;;;-139.71;68.17
3598;BME280;1813;52.016;8.714;2022-12-18T09:42:21;-16261.94;;;-139.71;67.77
3598;BME280;1813;52.016;8.714;2022-12-18T09:44:58;-16261.94;;;-139.71;67.63
3598;BME280;1813;52.016;8.714;2022-12-18T09:47:35;-16261.94;;;-139.71;68.05
3598;BME280;1813;52.016;8.714;2022-12-18T09:50:23;-16261.94;;;-139.71;68.10
3598;BME280;1813;52.016;8.714;2022-12-18T09:53:02;-16261.94;;;-139.71;68.07
3598;BME280;1813;52.016;8.714;2022-12-18T09:55:39;-16261.94;;;-139.71;67.88
3598;BME280;1813;52.016;8.714;2022-12-18T09:58:16;-16261.94;;;-139.71;67.66
3598;BME280;1813;52.016;8.714;2022-12-18T10:00:55;-16261.94;;;-139.71;67.37
3598;BME280;1813;52.016;8.714;2022-12-18T10:03:29;-16261.94;;;-139.71;67.06
3598;BME280;1813;52.016;8.714;2022-12-18T10:06:07;-16261.94;;;-139.71;66.28
3598;BME280;1813;52.016;8.714;2022-12-18T10:08:45;-16261.94;;;-139.71;65.10
3598;BME280;1813;52.016;8.714;2022-12-18T10:11:31;-16261.94;;;-139.71;63.50
3598;BME280;1813;52.016;8.714;2022-12-18T10:14:09;-16261.94;;;-139.71;62.27
3598;BME280;1813;52.016;8.714;2022-12-18T10:16:55;-16261.94;;;-139.71;61.12
3598;BME280;1813;52.016;8.714;2022-12-18T10:19:41;-16261.94;;;-139.71;60.63
3598;BME280;1813;52.016;8.714;2022-12-18T10:22:35;-16261.94;;;-139.71;60.52
3598;BME280;1813;52.016;8.714;2022-12-18T10:25:19;-16261.94;;;-139.71;60.31
3598;BME280;1813;52.016;8.714;2022-12-18T10:27:58;-16261.94;;;-139.71;59.80
3598;BME280;1813;52.016;8.714;2022-12-18T10:30:33;-16261.94;;;-139.71;58.89
3598;BME280;1813;52.016;8.714;2022-12-18T10:33:12;-16261.94;;;-139.71;57.95
3598;BME280;1813;52.016;8.714;2022-12-18T10:35:49;-16261.94;;;-139.71;57.58
3598;BME280;1813;52.016;8.714;2022-12-18T10:38:25;-16261.94;;;-139.71;57.60
3598;BME280;1813;52.016;8.714;2022-12-18T10:41:02;-16261.94;;;-139.71;57.11
3598;BME280;1813;52.016;8.714;2022-12-18T10:43:37;-16261.94;;;-139.71;57.02
3598;BME280;1813;52.016;8.714;2022-12-18T10:46:16;-16261.94;;;-139.71;56.82
3598;BME280;1813;52.016;8.714;2022-12-18T10:48:56;-16261.94;;;-139.71;56.15
3598;BME280;1813;52.016;8.714;2022-12-18T10:51:31;-16261.94;;;-139.71;56.20
3598;BME280;1813;52.016;8.714;2022-12-18T10:54:14;-16261.94;;;-139.71;55.82
3598;BME280;1813;52.016;8.714;2022-12-18T10:56:49;-16261.94;;;-139.71;55.69
3598;BME280;1813;52.016;8.714;2022-12-18T10:59:23;-16261.94;;;-139.71;55.02
3598;BME280;1813;52.016;8.714;2022-12-18T11:01:57;-16261.94;;;-139.71;54.60
3598;BME280;1813;52.016;8.714;2022-12-18T11:04:34;-16261.94;;;-139.71;54.50
3598;BME280;1813;52.016;8.714;2022-12-18T11:07:22;-16261.94;;;-139.71;54.67
3598;BME280;1813;52.016;8.714;2022-12-18T11:10:00;-16261.94;;;-139.71;54.64
3598;BME280;1813;52.016;8.714;2022-12-18T11:12:34;-16261.94;;;-139.71;54.96
3598;BME280;1813;52.016;8.714;2022-12-18T11:15:19;-16261.94;;;-139.71;54.61
3598;BME280;1813;52.016;8.714;2022-12-18T11:17:54;-16261.94;;;-139.71;54.44
3598;BME280;1813;52.016;8.714;2022-12-18T11:20:34;-16261.94;;;-139.71;54.51
3598;BME280;1813;52.016;8.714;2022-12-18T11:23:12;-16261.94;;;-139.71;54.38
3598;BME280;1813;52.016;8.714;2022-12-18T11:25:51;-16261.94;;;-139.71;54.41
3598;BME280;1813;52.016;8.714;2022-12-18T11:28:29;-16261.94;;;-139.71;54.56
3598;BME280;1813;52.016;8.714;2022-12-18T11:31:18;-16261.94;;;-139.71;54.66
3598;BME280;1813;52.016;8.714;2022-12-18T11:34:03;-16261.94;;;-139.71;54.93
3598;BME280;1813;52.016;8.714;2022-12-18T11:36:44;-16261.94;;;-139.71;55.04
3598;BME280;1813;52.016;8.714;2022-12-18T11:39:20;-16261.94;;;-139.71;55.16
3598;BME280;1813;52.016;8.714;2022-12-18T11:42:01;-16261.94;;;-139.71;55.36
3598;BME280;1813;52.016;8.714;2022-12-18T11:44:47;-16261.94;;;-139.71;55.35
3598;BME280;1813;52.016;8.714;2022-12-18T11:47:26;-16261.94;;;-139.71;55.19
3598;BME280;1813;52.016;8.714;2022-12-18T11:50:10;-16261.94;;;-139.71;55.42
3598;BME280;1813;52.016;8.714;2022-12-18T11:52:49;-16261.94;;;-139.71;55.59
3598;BME280;1813;52.016;8.714;2022-12-18T11:55:30;-16261.94;;;-139.71;55.62
3598;BME280;1813;52.016;8.714;2022-12-18T11:58:13;-16261.94;;;-139.71;55.57
3598;BME280;1813;52.016;8.714;2022-12-18T12:01:00;-16261.94;;;-139.71;55.62
3598;BME280;1813;52.016;8.714;2022-12-18T12:03:54;-16261.94;;;-139.71;55.68
3598;BME280;1813;52.016;8.714;2022-12-18T12:06:35;-16261.94;;;-139.71;55.67
3598;BME280;1813;52.016;8.714;2022-12-18T12:09:17;-16261.94;;;-139.71;55.76
3598;BME280;1813;52.016;8.714;2022-12-18T12:12:01;-16261.94;;;-139.71;55.86
3598;BME280;1813;52.016;8.714;2022-12-18T12:14:49;-16261.94;;;-139.71;55.97
3598;BME280;1813;52.016;8.714;2022-12-18T12:17:34;-16261.94;;;-139.71;55.97
3598;BME280;1813;52.016;8.714;2022-12-18T12:20:16;-16261.94;;;-139.71;55.88
3598;BME280;1813;52.016;8.714;2022-12-18T12:22:57;-16261.94;;;-139.71;55.86
3598;BME280;1813;52.016;8.714;2022-12-18T12:25:42;-16261.94;;;-139.71;55.85
3598;BME280;1813;52.016;8.714;2022-12-18T12:28:23;-16261.94;;;-139.71;55.86
3598;BME280;1813;52.016;8.714;2022-12-18T12:31:05;-16261.94;;;-139.71;55.92
3598;BME280;1813;52.016;8.714;2022-12-18T12:33:47;-16261.94;;;-139.71;55.94
3598;BME280;1813;52.016;8.714;2022-12-18T12:36:31;-16261.94;;;-139.71;55.96
3598;BME280;1813;52.016;8.714;2022-12-18T12:39:11;-16261.94;;;-139.71;56.08
3598;BME280;1813;52.016;8.714;2022-12-18T12:41:49;-16261.94;;;-139.71;55.94
3598;BME280;1813;52.016;8.714;2022-12-18T12:44:40;-16261.94;;;-139.71;55.80
3598;BME280;1813;52.016;8.714;2022-12-18T12:47:20;-16261.94;;;-139.71;55.76
3598;BME280;1813;52.016;8.714;2022-12-18T12:49:58;-16261.94;;;-139.71;55.79
3598;BME280;1813;52.016;8.714;2022-12-18T12:52:35;-16261.94;;;-139.71;55.73
3598;BME280;1813;52.016;8.714;2022-12-18T12:55:16;-16261.94;;;-139.71;55.67
3598;BME280;1813;52.016;8.714;2022-12-18T12:57:59;-16261.94;;;-139.71;55.53
3598;BME280;1813;52.016;8.714;2022-12-18T13:00:39;-16261.94;;;-139.71;55.40
3598;BME280;1813;52.016;8.714;2022-12-18T13:03:27;-16261.94;;;-139.71;55.52
3598;BME280;1813;52.016;8.714;2022-12-18T13:06:11;-16261.94;;;-139.71;55.59
3598;BME280;1813;52.016;8.714;2022-12-18T13:08:55;-16261.94;;;-139.71;55.64
3598;BME280;1813;52.016;8.714;2022-12-18T13:11:40;-16261.94;;;-139.71;55.66
3598;BME280;1813;52.016;8.714;2022-12-18T13:14:31;-16261.94;;;-139.71;55.71
3598;BME280;1813;52.016;8.714;2022-12-18T13:17:29;-16261.94;;;-139.71;55.85
3598;BME280;1813;52.016;8.714;2022-12-18T13:20:14;-16261.94;;;-139.71;55.89
3598;BME280;1813;52.016;8.714;2022-12-18T13:22:49;-16261.94;;;-139.71;56.21
3598;BME280;1813;52.016;8.714;2022-12-18T13:25:31;-16261.94;;;-139.71;56.06
3598;BME280;1813;52.016;8.714;2022-12-18T13:28:11;-16261.94;;;-139.71;55.93
3598;BME280;1813;52.016;8.714;2022-12-18T13:30:53;-16261.94;;;-139.71;55.77
3598;BME280;1813;52.016;8.714;2022-12-18T13:33:48;-16261.94;;;-139.71;55.82
3598;BME280;1813;52.016;8.714;2022-12-18T13:36:31;-16261.94;;;-139.71;55.75
3598;BME280;1813;52.016;8.714;2022-12-18T13:39:32;-16261.94;;;-139.71;55.92
3598;BME280;1813;52.016;8.714;2022-12-18T13:45:42;-16261.94;;;-139.71;55.59
3598;BME280;1813;52.016;8.714;2022-12-18T13:48:22;-16261.94;;;-139.71;55.40
3598;BME280;1813;52.016;8.714;2022-12-18T13:50:59;-16261.94;;;-139.71;55.45